Tropical Cyclones
[Index]
Main Index Home Page Stock Weather Photos Extreme Storms Discussion Storm News and Storm Chasing Reports Tropical Cyclones / Hurricanes / Typhoons Weather Data and Links Wild Fires / Bushfires Weather Observation Techniques Weather Picture Catalogue Tornado Pictures and Reports Stock Video Footage and DVDs for sale
Season 1964-1965 Tropical Cyclone FLORA Track Map
Season 1964-1965 Summaries: [BoM-AU] [JTWC-AU] [JTWC-SIO] [JTWC-SPAC] [JTWC-SH]
<<- Previous TC | JTWC 1964-1965 Season | Next TC ->>

click for intensity scale information  Lat/long Grid: Show Hide

 Date Labels: Show Hide

Joint Typhoon Warning Centre Cyclone Data

Name: FLORA
Number: 541 / 6504

30 Nov 1964 18:00 UTC to 08 Dec 1964 12:00 UTC

    date/time    lat    long     hPa   cat  kts
1964-11-30 18   10.4   134.6                  05          
1964-12-01 00   10.8   134.3                  20          
1964-12-01 06   11.0   133.9                  25          
1964-12-01 12   11.2   133.5                  30          
1964-12-01 18   11.4   133.1                  30          
1964-12-02 00   11.6   132.7                  25          
1964-12-02 06   11.8   132.2                  25          
1964-12-02 12   12.1   131.9                  25          
1964-12-02 18   12.4   131.7                  25          
1964-12-03 00   13.0   131.8                  20          
1964-12-03 06   13.4   132.2                  15          
1964-12-03 12   13.6   132.7                  15          
1964-12-03 18   13.7   133.4                  20          
1964-12-04 00   13.9   134.2                  30          
1964-12-04 06   14.3   135.2                  35          
1964-12-04 12   14.8   136.2                  35          
1964-12-04 18   15.4   137.4                  30          
1964-12-05 00   15.8   138.9                  35          
1964-12-05 06   16.3   140.2            1     40          
1964-12-05 12   16.7   141.3            2     65          
1964-12-05 18   17.4   142.3            2     55          
1964-12-06 00   17.4   143.4            1     40          
1964-12-06 06   17.6   144.5                  30          
1964-12-06 12   18.0   146.2            1     40          
1964-12-06 18   18.3   147.4            1     45          
1964-12-07 00   18.6   148.1            1     40          
1964-12-07 06   18.7   148.7                  35          
1964-12-07 12   18.9   149.2            1     40          
1964-12-07 18   19.0   149.8            1     45          
1964-12-08 00   19.2   150.3            1     40          
1964-12-08 06   19.3   150.9                  35          
1964-12-08 12   19.5   151.5                  30          
Winds are 1-min average.

Tropical cyclone tracks developed by Michael Bath using data from the Joint Typhoon Warning Centre Best Tracks and Google Maps.


[Australian Severe Weather index] [Copyright Notice] [Email Contacts] [Search This Site] [Privacy Policy]
Document: tropical_cyclone_flora.htm Updated: 18 September 2016